Time;durP1;ratioP1;P1;durP2;ratioP2;P2;SDS_P1;SDS_P2;PMS_P1;PMS_P2;Temp;Humidity;BMP_temperature;BMP_pressure;BME280_temperature;BME280_humidity;BME280_pressure;Samples;Min_cycle;Max_cycle;Signal;HPM_P1;HPM_P2
2022/07/27 00:01:09;;;;;;;1.53;0.67;;;25.70;49.00;;;;;;5014594;28;20527;-47
2022/07/27 00:03:38;;;;;;;0.87;0.87;;;25.70;49.00;;;;;;5023867;28;20469;-47
2022/07/27 00:06:06;;;;;;;1.10;1.00;;;25.70;49.00;;;;;;5019994;28;20453;-46
2022/07/27 00:08:35;;;;;;;0.90;0.80;;;25.70;48.90;;;;;;5014295;28;20518;-47
2022/07/27 00:11:05;;;;;;;1.13;0.80;;;25.70;48.70;;;;;;5022531;28;20444;-47
2022/07/27 00:13:33;;;;;;;1.20;1.10;;;25.70;48.80;;;;;;5018338;28;20471;-48
2022/07/27 00:16:01;;;;;;;1.30;0.83;;;25.70;48.80;;;;;;5013133;28;20544;-47
2022/07/27 00:18:29;;;;;;;0.77;0.63;;;25.70;50.00;;;;;;5019699;28;20468;-47
2022/07/27 00:20:57;;;;;;;2.27;0.77;;;25.70;48.90;;;;;;5020250;28;20867;-47
2022/07/27 00:23:26;;;;;;;1.10;0.90;;;25.70;48.60;;;;;;5027123;28;20497;-48
2022/07/27 00:25:54;;;;;;;0.97;0.90;;;25.70;48.80;;;;;;5022577;28;20460;-46
2022/07/27 00:28:23;;;;;;;1.53;0.90;;;25.60;48.80;;;;;;5024201;28;20558;-46
2022/07/27 00:30:51;;;;;;;1.07;1.00;;;25.70;48.90;;;;;;5009264;28;20467;-47
2022/07/27 00:33:19;;;;;;;1.37;0.97;;;25.60;48.90;;;;;;5019356;28;21003;-48
2022/07/27 00:35:47;;;;;;;1.03;0.87;;;25.60;49.00;;;;;;5016154;28;20452;-47
2022/07/27 00:38:15;;;;;;;0.97;0.90;;;25.60;48.90;;;;;;5026171;28;20492;-46
2022/07/27 00:40:44;;;;;;;1.27;1.00;;;25.60;48.90;;;;;;5005523;28;20524;-47
2022/07/27 00:43:12;;;;;;;1.23;1.00;;;25.60;48.90;;;;;;5019009;28;20476;-52
2022/07/27 00:45:42;;;;;;;1.00;0.90;;;25.60;48.90;;;;;;5015596;28;20439;-48
2022/07/27 00:48:10;;;;;;;1.20;1.10;;;25.60;48.90;;;;;;5021587;28;21026;-46
2022/07/27 00:50:40;;;;;;;1.20;1.10;;;25.60;48.90;;;;;;5025764;28;20436;-45
2022/07/27 00:53:09;;;;;;;1.10;0.83;;;25.60;48.90;;;;;;5018843;28;21050;-48
2022/07/27 00:55:39;;;;;;;1.30;1.20;;;25.60;49.00;;;;;;5028486;28;20447;-47
2022/07/27 00:58:08;;;;;;;1.30;1.17;;;25.60;48.90;;;;;;5024763;28;20488;-48
2022/07/27 01:00:38;;;;;;;0.90;0.83;;;25.60;48.90;;;;;;5016114;28;20472;-46
2022/07/27 01:03:07;;;;;;;1.10;1.00;;;25.60;48.90;;;;;;5020054;28;20552;-47
2022/07/27 01:05:38;;;;;;;1.10;1.00;;;25.60;48.90;;;;;;5025105;28;20444;-47
2022/07/27 01:08:12;;;;;;;0.83;0.83;;;25.60;49.00;;;;;;5026971;28;20472;-47
2022/07/27 01:10:42;;;;;;;0.90;0.70;;;25.60;49.00;;;;;;5021482;28;20445;-46
2022/07/27 01:13:10;;;;;;;2.33;1.07;;;25.60;49.10;;;;;;5024010;28;22563;-47
2022/07/27 01:15:41;;;;;;;1.40;0.80;;;25.60;49.10;;;;;;5018145;28;20547;-46
2022/07/27 01:18:13;;;;;;;1.03;0.70;;;25.60;49.00;;;;;;5025906;28;20503;-47
2022/07/27 01:20:42;;;;;;;0.90;0.90;;;25.50;48.90;;;;;;5020360;28;20527;-47
2022/07/27 01:23:11;;;;;;;1.00;0.90;;;25.60;48.90;;;;;;5020199;28;20551;-47
2022/07/27 01:25:42;;;;;;;1.53;1.00;;;25.50;48.90;;;;;;5022499;28;20420;-46
2022/07/27 01:28:10;;;;;;;1.20;0.90;;;25.60;49.00;;;;;;5026039;28;20841;-48
2022/07/27 01:30:38;;;;;;;1.20;1.00;;;25.50;48.90;;;;;;5023922;28;20454;-47
2022/07/27 01:33:09;;;;;;;2.40;1.00;;;25.50;49.00;;;;;;5015762;28;20465;-47
2022/07/27 01:35:38;;;;;;;0.80;0.70;;;25.50;49.00;;;;;;5022030;28;20444;-46
2022/07/27 01:38:08;;;;;;;1.10;0.63;;;25.50;49.00;;;;;;5029416;28;21071;-47
2022/07/27 01:40:38;;;;;;;1.23;0.90;;;25.50;49.00;;;;;;5023562;28;20447;-46
2022/07/27 01:43:07;;;;;;;1.43;0.90;;;25.50;49.00;;;;;;5021549;28;20503;-47
2022/07/27 01:45:35;;;;;;;0.93;0.83;;;25.50;48.90;;;;;;5016620;28;20443;-47
2022/07/27 01:48:04;;;;;;;1.77;0.90;;;25.50;49.00;;;;;;5025751;28;20508;-47
2022/07/27 01:50:32;;;;;;;0.80;0.70;;;25.50;49.00;;;;;;5022867;28;20440;-47
2022/07/27 01:53:00;;;;;;;1.07;0.97;;;25.50;49.10;;;;;;5024343;28;20474;-47
2022/07/27 01:55:29;;;;;;;1.10;0.80;;;25.50;49.20;;;;;;5017501;28;21006;-47
2022/07/27 01:58:07;;;;;;;1.33;0.83;;;25.50;49.20;;;;;;5015956;28;20819;-47
2022/07/27 02:00:36;;;;;;;0.80;0.80;;;25.50;49.10;;;;;;5015701;28;20559;-47
2022/07/27 02:03:06;;;;;;;1.10;1.00;;;25.50;49.10;;;;;;5015234;28;20551;-47
2022/07/27 02:05:34;;;;;;;0.90;0.90;;;25.50;49.10;;;;;;5028654;28;20440;-47
2022/07/27 02:08:04;;;;;;;0.83;0.70;;;25.50;49.10;;;;;;5029548;28;20889;-48
2022/07/27 02:10:33;;;;;;;0.80;0.80;;;25.50;49.10;;;;;;5023348;28;20447;-47
2022/07/27 02:13:00;;;;;;;0.80;0.63;;;25.50;49.10;;;;;;5021810;28;20452;-46
2022/07/27 02:15:43;;;;;;;1.23;0.83;;;25.40;49.00;;;;;;5012398;28;20455;-47
2022/07/27 02:18:11;;;;;;;1.10;0.67;;;25.40;49.00;;;;;;5027634;28;20479;-46
2022/07/27 02:20:59;;;;;;;1.20;0.80;;;25.40;49.10;;;;;;5026270;28;20436;-46
2022/07/27 02:23:27;;;;;;;1.43;0.93;;;25.40;49.10;;;;;;5023642;28;20479;-47
2022/07/27 02:25:58;;;;;;;0.70;0.70;;;25.40;49.10;;;;;;5028715;28;21120;-47
2022/07/27 02:28:26;;;;;;;0.80;0.80;;;25.40;49.10;;;;;;5022676;28;20486;-47
2022/07/27 02:30:55;;;;;;;1.07;0.97;;;25.40;49.10;;;;;;5018364;28;20439;-47
2022/07/27 02:33:23;;;;;;;0.83;0.83;;;25.40;49.00;;;;;;5019006;28;20525;-47
2022/07/27 02:35:51;;;;;;;1.20;0.80;;;25.40;49.00;;;;;;5026409;28;20973;-48
2022/07/27 02:38:19;;;;;;;0.67;0.67;;;25.40;49.10;;;;;;5015194;28;20554;-46
2022/07/27 02:40:47;;;;;;;0.90;0.70;;;25.40;49.10;;;;;;5028992;28;20962;-47
2022/07/27 02:43:15;;;;;;;0.90;0.70;;;25.40;49.10;;;;;;5023790;28;21193;-46
2022/07/27 02:45:44;;;;;;;1.10;0.80;;;25.40;49.10;;;;;;5101513;22;20795;-48
2022/07/27 02:48:15;;;;;;;0.90;0.73;;;25.40;49.10;;;;;;5022090;28;20480;-48
2022/07/27 02:50:43;;;;;;;0.93;0.90;;;25.40;49.10;;;;;;5022647;28;20643;-48
2022/07/27 02:53:12;;;;;;;0.63;0.60;;;25.40;49.20;;;;;;5003980;28;20824;-48
2022/07/27 02:55:40;;;;;;;1.10;0.77;;;25.40;49.20;;;;;;5015223;28;20452;-48
2022/07/27 02:58:08;;;;;;;0.90;0.87;;;25.40;49.20;;;;;;5016785;28;20844;-48
2022/07/27 03:00:36;;;;;;;0.80;0.70;;;25.40;49.20;;;;;;5015670;28;20812;-47
2022/07/27 03:03:04;;;;;;;0.90;0.90;;;25.30;49.10;;;;;;5002286;28;20460;-48
2022/07/27 03:05:33;;;;;;;0.80;0.80;;;25.40;49.20;;;;;;5009005;28;20515;-48
2022/07/27 03:08:02;;;;;;;0.93;0.80;;;25.30;49.30;;;;;;5010035;28;20505;-48
2022/07/27 03:10:31;;;;;;;0.80;0.80;;;25.30;49.20;;;;;;5008385;28;20527;-48
2022/07/27 03:12:59;;;;;;;1.03;0.93;;;25.30;49.10;;;;;;5022590;28;20473;-49
2022/07/27 03:15:29;;;;;;;0.80;0.80;;;25.30;49.10;;;;;;5004515;28;20452;-48
2022/07/27 03:17:57;;;;;;;0.83;0.73;;;25.30;49.10;;;;;;4997403;28;20553;-47
2022/07/27 03:20:25;;;;;;;1.57;0.90;;;25.30;49.10;;;;;;5017724;28;20927;-48
2022/07/27 03:22:54;;;;;;;0.70;0.70;;;25.30;49.10;;;;;;5011978;28;20904;-49
2022/07/27 03:25:22;;;;;;;0.80;0.77;;;25.30;49.00;;;;;;5010865;28;20919;-48
2022/07/27 03:27:50;;;;;;;1.47;1.00;;;25.30;49.10;;;;;;5013913;28;20816;-48
2022/07/27 03:30:18;;;;;;;0.80;0.73;;;25.30;50.30;;;;;;5009444;28;20661;-47
2022/07/27 03:32:47;;;;;;;1.23;0.80;;;25.30;49.00;;;;;;5013414;28;20461;-47
2022/07/27 03:35:15;;;;;;;0.97;0.87;;;25.30;49.10;;;;;;5013766;28;20531;-48
2022/07/27 03:37:46;;;;;;;1.20;1.00;;;25.30;49.10;;;;;;5022747;28;20471;-47
2022/07/27 03:40:16;;;;;;;1.23;0.70;;;25.30;49.10;;;;;;5015489;28;20462;-48
2022/07/27 03:42:44;;;;;;;1.20;0.90;;;25.20;48.90;;;;;;5017728;28;20563;-48
2022/07/27 03:45:12;;;;;;;0.70;0.70;;;25.30;49.10;;;;;;5022369;28;20432;-48
2022/07/27 03:47:40;;;;;;;0.73;0.63;;;25.20;49.00;;;;;;5020255;28;21010;-48
2022/07/27 03:50:09;;;;;;;0.90;0.90;;;25.20;49.00;;;;;;5024079;28;20532;-48
2022/07/27 03:52:37;;;;;;;0.70;0.63;;;25.20;49.10;;;;;;5018321;28;21022;-48
2022/07/27 03:55:06;;;;;;;1.00;0.80;;;25.20;49.10;;;;;;5008895;28;20814;-48
2022/07/27 03:57:36;;;;;;;1.73;0.87;;;25.20;49.20;;;;;;5023194;28;20514;-49
2022/07/27 04:00:05;;;;;;;1.03;0.90;;;25.20;49.10;;;;;;5009676;28;20451;-48
2022/07/27 04:02:34;;;;;;;1.77;0.80;;;25.20;49.10;;;;;;5019095;28;20617;-48
2022/07/27 04:05:02;;;;;;;1.70;1.00;;;25.20;49.10;;;;;;5016402;28;21316;-48
2022/07/27 04:07:30;;;;;;;1.57;0.90;;;25.20;49.00;;;;;;5023337;28;20552;-48
2022/07/27 04:09:58;;;;;;;0.83;0.80;;;25.20;49.20;;;;;;5001882;28;20449;-48
2022/07/27 04:12:26;;;;;;;0.97;0.90;;;25.10;49.10;;;;;;5012793;28;20520;-48
2022/07/27 04:14:56;;;;;;;1.10;0.90;;;25.20;49.10;;;;;;5013557;28;20480;-48
2022/07/27 04:17:25;;;;;;;0.80;0.80;;;25.20;49.10;;;;;;5021001;28;20560;-48
2022/07/27 04:20:13;;;;;;;1.00;0.73;;;25.10;49.20;;;;;;5016272;28;20813;-49
2022/07/27 04:22:41;;;;;;;0.97;0.70;;;25.10;49.10;;;;;;5017045;28;20482;-48
2022/07/27 04:25:10;;;;;;;1.00;0.80;;;25.10;49.10;;;;;;5010407;28;20472;-48
2022/07/27 04:27:38;;;;;;;1.27;0.73;;;25.10;49.10;;;;;;5016943;28;20551;-47
2022/07/27 04:30:10;;;;;;;0.83;0.80;;;25.10;49.10;;;;;;5009334;28;20780;-48
2022/07/27 04:32:39;;;;;;;0.70;0.60;;;25.10;49.10;;;;;;5010612;28;20462;-48
2022/07/27 04:35:08;;;;;;;0.60;0.53;;;25.10;50.70;;;;;;5012937;28;20967;-47
2022/07/27 04:37:36;;;;;;;1.10;1.00;;;25.10;49.30;;;;;;5006893;28;20542;-48
2022/07/27 04:40:06;;;;;;;0.90;0.70;;;25.10;49.10;;;;;;5013333;28;20444;-48
2022/07/27 04:42:36;;;;;;;1.23;1.03;;;25.10;49.00;;;;;;5014572;28;20429;-48
2022/07/27 04:45:17;;;;;;;1.10;0.90;;;25.10;49.10;;;;;;5005272;28;20477;-47
2022/07/27 04:47:45;;;;;;;1.20;0.90;;;25.10;49.10;;;;;;5012968;28;20552;-48
2022/07/27 04:50:13;;;;;;;1.00;0.60;;;25.10;49.10;;;;;;5019397;28;20446;-47
2022/07/27 04:52:44;;;;;;;2.63;1.37;;;25.10;49.10;;;;;;5024583;28;20990;-47
2022/07/27 04:55:13;;;;;;;1.17;1.00;;;25.10;49.10;;;;;;5006286;28;20471;-48
2022/07/27 04:57:41;;;;;;;0.83;0.80;;;25.10;49.10;;;;;;5016563;28;20970;-48
2022/07/27 05:00:11;;;;;;;0.70;0.70;;;25.10;49.10;;;;;;5004160;28;20470;-49
2022/07/27 05:02:41;;;;;;;1.00;0.80;;;25.10;49.10;;;;;;4998155;28;20549;-47
2022/07/27 05:05:09;;;;;;;0.87;0.70;;;25.00;49.00;;;;;;5019511;28;20532;-48
2022/07/27 05:07:38;;;;;;;0.80;0.70;;;25.00;49.10;;;;;;5018939;28;20968;-48
2022/07/27 05:10:06;;;;;;;0.83;0.80;;;25.00;49.10;;;;;;5011435;28;20928;-47
2022/07/27 05:12:35;;;;;;;0.60;0.50;;;25.00;49.10;;;;;;5018867;28;20437;-48
2022/07/27 05:15:04;;;;;;;1.43;0.63;;;25.00;49.10;;;;;;5021496;28;20436;-48
2022/07/27 05:17:32;;;;;;;0.90;0.83;;;25.00;49.00;;;;;;5012063;28;20909;-48
2022/07/27 05:20:02;;;;;;;0.80;0.80;;;25.00;49.10;;;;;;5008064;28;20503;-48
2022/07/27 05:22:30;;;;;;;1.00;0.90;;;25.00;49.10;;;;;;4986032;28;20445;-48
2022/07/27 05:25:05;;;;;;;1.50;0.90;;;25.00;49.10;;;;;;5006959;28;20835;-49
2022/07/27 05:27:34;;;;;;;1.00;0.70;;;25.00;49.10;;;;;;5009151;28;20467;-48
2022/07/27 05:30:03;;;;;;;0.70;0.70;;;25.00;49.10;;;;;;4994649;28;20449;-48
2022/07/27 05:32:31;;;;;;;1.50;0.77;;;25.00;49.20;;;;;;4988458;28;20476;-48
2022/07/27 05:34:59;;;;;;;0.83;0.70;;;25.00;49.10;;;;;;5007964;28;20452;-48
2022/07/27 05:37:30;;;;;;;1.37;0.63;;;25.00;49.10;;;;;;5008931;28;20440;-48
2022/07/27 05:39:57;;;;;;;1.23;0.67;;;25.00;49.10;;;;;;5009957;28;20476;-48
2022/07/27 05:42:26;;;;;;;1.10;0.90;;;24.90;49.00;;;;;;5021252;28;20440;-49
2022/07/27 05:44:54;;;;;;;1.60;0.80;;;24.90;48.80;;;;;;5001464;28;20959;-48
2022/07/27 05:47:22;;;;;;;1.73;0.60;;;24.90;48.90;;;;;;5010350;28;21159;-48
2022/07/27 05:49:50;;;;;;;1.57;1.00;;;25.00;48.90;;;;;;4999915;28;21176;-48
2022/07/27 05:52:19;;;;;;;1.07;0.57;;;24.90;48.70;;;;;;5005043;28;20440;-47
2022/07/27 05:54:49;;;;;;;1.40;0.63;;;24.90;48.90;;;;;;5008102;28;20507;-48
2022/07/27 05:57:17;;;;;;;1.47;0.73;;;24.90;48.80;;;;;;5001052;28;20461;-47
2022/07/27 05:59:45;;;;;;;1.30;0.80;;;24.90;48.90;;;;;;5003797;28;20444;-48
2022/07/27 06:02:13;;;;;;;0.70;0.67;;;24.90;49.10;;;;;;5000604;28;20425;-48
2022/07/27 06:04:41;;;;;;;1.00;0.67;;;24.90;48.90;;;;;;5003072;28;20561;-48
2022/07/27 06:09:57;;;;;;;1.70;0.83;;;24.90;49.00;;;;;;4998555;28;20457;-48
2022/07/27 06:12:25;;;;;;;0.63;0.63;;;24.90;48.90;;;;;;5012680;28;20433;-48
2022/07/27 06:14:57;;;;;;;0.90;0.80;;;24.90;49.10;;;;;;5024207;28;20460;-47
2022/07/27 06:17:25;;;;;;;1.60;0.80;;;24.90;49.00;;;;;;5015563;28;20491;-49
2022/07/27 06:19:53;;;;;;;1.67;1.00;;;24.90;48.90;;;;;;4997096;28;20732;-48
2022/07/27 06:22:21;;;;;;;1.33;0.70;;;24.90;48.90;;;;;;5013843;28;20832;-48
2022/07/27 06:24:49;;;;;;;0.60;0.60;;;24.90;48.80;;;;;;5009967;28;20492;-48
2022/07/27 06:27:19;;;;;;;0.90;0.73;;;24.90;49.00;;;;;;5016988;28;20452;-48
2022/07/27 06:29:47;;;;;;;0.90;0.80;;;24.90;49.00;;;;;;5013985;28;20480;-48
2022/07/27 06:32:15;;;;;;;1.37;0.90;;;24.90;48.90;;;;;;5018151;28;20428;-49
2022/07/27 06:34:46;;;;;;;0.80;0.80;;;24.90;49.00;;;;;;4998075;28;20472;-48
2022/07/27 06:37:14;;;;;;;1.20;0.73;;;24.90;49.00;;;;;;5016311;28;20464;-48
2022/07/27 06:39:45;;;;;;;1.30;0.87;;;24.90;49.00;;;;;;5027597;28;21007;-47
2022/07/27 06:42:13;;;;;;;1.30;1.07;;;24.90;48.50;;;;;;5015064;28;20464;-48
2022/07/27 06:44:42;;;;;;;0.90;0.90;;;24.90;48.90;;;;;;5003395;28;20531;-49
2022/07/27 06:47:10;;;;;;;1.17;0.77;;;24.90;49.00;;;;;;5006830;28;21027;-48
2022/07/27 06:49:39;;;;;;;0.83;0.77;;;24.90;49.00;;;;;;5007783;28;20499;-48
2022/07/27 06:52:07;;;;;;;1.00;0.77;;;24.80;48.30;;;;;;5001444;28;20449;-47
2022/07/27 06:54:35;;;;;;;0.73;0.70;;;24.80;48.70;;;;;;5022365;28;21009;-47
2022/07/27 06:57:04;;;;;;;1.23;0.80;;;24.80;48.80;;;;;;5032917;28;20460;-49
2022/07/27 06:59:34;;;;;;;1.17;0.87;;;24.80;48.70;;;;;;5016839;28;20701;-48
2022/07/27 07:02:12;;;;;;;1.57;0.97;;;24.80;48.70;;;;;;5005177;28;20831;-48
2022/07/27 07:04:40;;;;;;;0.93;0.83;;;24.80;48.50;;;;;;4998069;28;20980;-48
2022/07/27 07:07:08;;;;;;;1.00;0.90;;;24.80;48.50;;;;;;5009293;28;20980;-47
2022/07/27 07:09:36;;;;;;;0.90;0.80;;;24.80;48.80;;;;;;5011043;28;20701;-48
2022/07/27 07:12:04;;;;;;;3.20;1.50;;;25.00;48.60;;;;;;5019233;28;20477;-46
2022/07/27 07:14:32;;;;;;;3.00;1.07;;;25.00;46.50;;;;;;5010959;28;20536;-48
2022/07/27 07:17:01;;;;;;;3.67;1.47;;;25.10;44.40;;;;;;5016665;28;20540;-48
2022/07/27 07:19:30;;;;;;;3.40;1.00;;;25.10;44.90;;;;;;5020083;28;20465;-48
2022/07/27 07:21:58;;;;;;;1.97;1.37;;;25.00;44.70;;;;;;5008976;28;20947;-48
2022/07/27 07:24:28;;;;;;;1.53;1.07;;;25.00;44.00;;;;;;5026355;28;20823;-49
2022/07/27 07:26:57;;;;;;;4.03;1.50;;;24.90;44.70;;;;;;4992271;28;20493;-49
2022/07/27 07:29:25;;;;;;;2.20;0.90;;;24.90;44.50;;;;;;5018940;28;20479;-49
2022/07/27 07:31:53;;;;;;;2.00;1.40;;;24.90;44.60;;;;;;5013431;28;20464;-48
2022/07/27 07:34:21;;;;;;;2.40;0.77;;;24.90;44.90;;;;;;5012484;28;20461;-47
2022/07/27 07:36:51;;;;;;;2.13;0.97;;;24.80;45.40;;;;;;5008477;28;20877;-48
2022/07/27 07:39:19;;;;;;;2.43;1.00;;;24.80;45.50;;;;;;5004055;28;20467;-48
2022/07/27 07:41:47;;;;;;;1.93;1.13;;;24.80;45.50;;;;;;4999366;28;20473;-49
2022/07/27 07:44:15;;;;;;;1.60;0.80;;;24.80;46.30;;;;;;5015322;28;20572;-48
2022/07/27 07:46:43;;;;;;;2.63;1.07;;;24.80;46.70;;;;;;5011795;28;20525;-48
2022/07/27 07:49:14;;;;;;;0.90;0.80;;;24.80;46.40;;;;;;5028094;28;20472;-47
2022/07/27 07:51:43;;;;;;;1.00;0.70;;;24.80;46.60;;;;;;5004767;28;20448;-48
2022/07/27 07:54:13;;;;;;;5.27;1.47;;;24.80;46.70;;;;;;5026651;28;20468;-48
2022/07/27 07:56:41;;;;;;;0.90;0.77;;;24.80;46.70;;;;;;5016916;28;20498;-48
2022/07/27 07:59:09;;;;;;;1.63;0.70;;;24.80;46.90;;;;;;5024848;28;20472;-48
2022/07/27 08:01:38;;;;;;;1.80;0.80;;;24.80;47.00;;;;;;5009497;28;20446;-48
2022/07/27 08:04:06;;;;;;;2.50;0.87;;;24.80;47.20;;;;;;5022225;28;20495;-48
2022/07/27 08:06:35;;;;;;;1.13;1.00;;;24.80;47.00;;;;;;5020651;28;20468;-49
2022/07/27 08:09:03;;;;;;;2.30;1.17;;;24.80;47.10;;;;;;5010417;28;21014;-49
2022/07/27 08:11:32;;;;;;;1.30;1.20;;;24.80;47.20;;;;;;5017132;28;20432;-47
2022/07/27 08:14:02;;;;;;;2.27;0.67;;;24.80;47.20;;;;;;5008272;28;20498;-48
2022/07/27 08:16:30;;;;;;;1.20;0.87;;;24.80;47.20;;;;;;4985647;28;20483;-48
2022/07/27 08:18:58;;;;;;;3.13;0.90;;;24.80;47.20;;;;;;4996768;28;20461;-48
2022/07/27 08:21:27;;;;;;;2.50;1.07;;;24.80;47.20;;;;;;4998195;28;21023;-49
2022/07/27 08:24:03;;;;;;;1.17;0.80;;;24.80;47.30;;;;;;5008773;28;20480;-48
2022/07/27 08:26:31;;;;;;;1.80;0.80;;;24.70;47.20;;;;;;5017779;28;20523;-49
2022/07/27 08:29:00;;;;;;;2.03;0.70;;;24.70;47.20;;;;;;5002704;28;20478;-48
2022/07/27 08:31:40;;;;;;;1.63;1.00;;;24.70;48.40;;;;;;5007584;28;20452;-48
2022/07/27 08:34:20;;;;;;;1.10;0.93;;;24.70;47.30;;;;;;5002364;28;20492;-48
2022/07/27 08:36:48;;;;;;;3.17;0.90;;;24.70;47.40;;;;;;5008906;28;20492;-49
2022/07/27 08:39:16;;;;;;;1.23;0.80;;;24.70;47.30;;;;;;5005781;28;20555;-48
2022/07/27 08:42:09;;;;;;;1.60;0.83;;;24.70;47.30;;;;;;5021168;28;20676;-47
2022/07/27 08:44:41;;;;;;;2.13;0.90;;;24.70;47.40;;;;;;5006343;28;20496;-47
2022/07/27 08:47:10;;;;;;;2.33;1.37;;;24.70;47.20;;;;;;5020866;28;20483;-49
2022/07/27 08:49:40;;;;;;;2.80;0.83;;;24.70;47.00;;;;;;5013303;28;21004;-47
2022/07/27 08:52:12;;;;;;;1.33;0.67;;;24.70;46.90;;;;;;5029789;28;21282;-48
2022/07/27 08:54:41;;;;;;;4.00;1.00;;;24.70;46.70;;;;;;5006254;28;21011;-47
2022/07/27 08:57:09;;;;;;;2.90;0.80;;;24.70;46.90;;;;;;5027032;28;20439;-47
2022/07/27 08:59:37;;;;;;;1.20;0.90;;;24.70;45.90;;;;;;5007649;28;20474;-48
2022/07/27 09:02:10;;;;;;;1.23;0.67;;;24.70;46.00;;;;;;4988730;28;20432;-47
2022/07/27 09:04:40;;;;;;;1.63;0.70;;;24.70;46.20;;;;;;5030248;28;20462;-48
2022/07/27 09:07:08;;;;;;;1.00;0.90;;;24.70;46.70;;;;;;4999668;28;20477;-48
2022/07/27 09:09:45;;;;;;;1.23;0.77;;;24.70;46.90;;;;;;5001003;28;20471;-48
2022/07/27 09:12:13;;;;;;;1.17;0.70;;;24.60;46.80;;;;;;5004546;28;20439;-48
2022/07/27 09:14:42;;;;;;;1.17;0.60;;;24.60;47.00;;;;;;5005420;28;20560;-49
2022/07/27 09:17:23;;;;;;;2.50;0.60;;;24.60;47.00;;;;;;5009811;28;20805;-48
2022/07/27 09:20:15;;;;;;;1.87;0.67;;;24.60;47.20;;;;;;5011328;28;20491;-48
2022/07/27 09:22:49;;;;;;;0.60;0.57;;;24.60;47.20;;;;;;5001785;28;20461;-48
2022/07/27 09:25:19;;;;;;;3.17;1.07;;;24.60;47.40;;;;;;5002521;28;20433;-48
2022/07/27 09:28:07;;;;;;;1.10;0.90;;;24.60;47.40;;;;;;5000433;28;20477;-48
2022/07/27 09:30:41;;;;;;;1.03;0.80;;;24.60;47.50;;;;;;5016421;28;20880;-48
2022/07/27 09:33:11;;;;;;;1.00;0.60;;;24.60;47.70;;;;;;5008830;28;20460;-49
2022/07/27 09:35:40;;;;;;;1.03;0.67;;;24.60;47.50;;;;;;4996733;28;20534;-47
2022/07/27 09:38:18;;;;;;;0.80;0.70;;;24.60;47.60;;;;;;5027226;28;20467;-48
2022/07/27 09:40:48;;;;;;;4.10;0.63;;;24.60;47.70;;;;;;5007244;28;20816;-47
2022/07/27 09:43:20;;;;;;;2.23;0.80;;;24.60;47.20;;;;;;5009432;28;20877;-47
2022/07/27 09:46:08;;;;;;;2.43;0.90;;;24.50;46.70;;;;;;5005160;28;20511;-49
2022/07/27 09:48:38;;;;;;;1.30;0.70;;;24.50;47.40;;;;;;5024594;28;20464;-48
2022/07/27 09:51:09;;;;;;;1.13;0.80;;;24.50;47.60;;;;;;4999509;28;20449;-48
2022/07/27 09:54:06;;;;;;;3.23;1.00;;;24.50;47.10;;;;;;5006843;28;20502;-48
2022/07/27 09:56:34;;;;;;;1.27;0.80;;;24.50;46.10;;;;;;5010786;28;20440;-48
2022/07/27 09:59:03;;;;;;;1.10;0.60;;;24.50;47.20;;;;;;5014076;28;21016;-48
2022/07/27 10:01:36;;;;;;;1.00;0.90;;;24.50;47.40;;;;;;5005837;28;20464;-48
2022/07/27 10:04:15;;;;;;;1.93;1.10;;;24.50;47.20;;;;;;5008367;28;20480;-48
2022/07/27 10:06:44;;;;;;;0.80;0.60;;;24.50;46.80;;;;;;5010915;28;20471;-48
2022/07/27 10:09:31;;;;;;;1.13;0.70;;;24.50;47.30;;;;;;5025234;28;20514;-48
2022/07/27 10:12:00;;;;;;;1.30;0.70;;;24.50;47.50;;;;;;5010529;28;20464;-48
2022/07/27 10:14:37;;;;;;;1.00;0.63;;;24.50;46.40;;;;;;4998425;28;20539;-48
2022/07/27 10:17:09;;;;;;;0.73;0.60;;;24.50;46.40;;;;;;4987842;28;20486;-47
2022/07/27 10:19:45;;;;;;;1.43;0.60;;;24.50;48.00;;;;;;4980176;28;20469;-47
2022/07/27 10:22:13;;;;;;;0.67;0.67;;;24.50;46.70;;;;;;4990756;28;20437;-47
2022/07/27 10:24:42;;;;;;;0.93;0.70;;;24.50;47.10;;;;;;4981632;28;20466;-47
2022/07/27 10:27:19;;;;;;;1.60;0.80;;;24.50;46.60;;;;;;4981474;28;20469;-47
2022/07/27 10:29:49;;;;;;;1.23;0.90;;;24.50;47.00;;;;;;4976393;28;20516;-47
2022/07/27 10:32:24;;;;;;;1.23;0.60;;;24.50;47.00;;;;;;4966231;28;20442;-48
2022/07/27 10:34:54;;;;;;;2.20;0.80;;;24.50;47.20;;;;;;4991170;28;20483;-48
2022/07/27 10:37:28;;;;;;;0.90;0.40;;;24.50;47.40;;;;;;4981510;28;20561;-46
2022/07/27 10:42:46;;;;;;;1.60;1.00;;;24.50;47.20;;;;;;4985478;28;20480;-47
2022/07/27 10:45:21;;;;;;;0.80;0.70;;;24.50;47.30;;;;;;4979492;28;20441;-47
2022/07/27 10:47:51;;;;;;;0.70;0.70;;;24.50;47.10;;;;;;4981552;28;20878;-46
2022/07/27 10:50:24;;;;;;;2.10;0.80;;;24.50;46.40;;;;;;4966568;28;20711;-46
2022/07/27 10:52:55;;;;;;;1.47;0.70;;;24.50;46.30;;;;;;4990316;28;20522;-47
2022/07/27 10:55:49;;;;;;;1.23;0.70;;;24.50;46.40;;;;;;4992070;28;20489;-46
2022/07/27 10:58:49;;;;;;;0.60;0.50;;;24.50;45.80;;;;;;4955824;28;20548;-47
2022/07/27 11:01:23;;;;;;;0.70;0.60;;;24.50;46.40;;;;;;4966160;28;20445;-46
2022/07/27 11:03:55;;;;;;;1.47;0.83;;;24.50;46.60;;;;;;4980891;28;20813;-46
2022/07/27 11:06:27;;;;;;;0.83;0.50;;;24.50;45.70;;;;;;4966427;28;20465;-47
2022/07/27 11:09:15;;;;;;;1.63;0.70;;;24.50;46.20;;;;;;4978065;28;20962;-47
2022/07/27 11:12:05;;;;;;;0.80;0.80;;;24.50;46.10;;;;;;4972107;28;20442;-47
2022/07/27 11:14:44;;;;;;;0.87;0.70;;;24.60;46.50;;;;;;4968006;28;21016;-46
2022/07/27 11:17:14;;;;;;;2.47;1.03;;;24.60;45.80;;;;;;4973287;28;20458;-46
2022/07/27 11:20:03;;;;;;;1.27;0.83;;;24.50;45.50;;;;;;4971564;28;20735;-46
2022/07/27 11:22:35;;;;;;;0.67;0.57;;;24.50;45.90;;;;;;4973884;28;20957;-47
2022/07/27 11:25:24;;;;;;;1.30;0.80;;;24.50;46.40;;;;;;4968301;28;20989;-47
2022/07/27 11:27:52;;;;;;;2.03;0.73;;;24.50;46.40;;;;;;4971996;28;20566;-46
2022/07/27 11:30:24;;;;;;;0.90;0.77;;;24.60;46.40;;;;;;4973682;28;21017;-46
2022/07/27 11:32:53;;;;;;;2.63;0.90;;;24.60;46.60;;;;;;4971986;28;20474;-47
2022/07/27 11:35:22;;;;;;;1.63;0.53;;;24.50;46.30;;;;;;4971008;28;20475;-47
2022/07/27 11:38:04;;;;;;;0.80;0.70;;;24.60;46.40;;;;;;4972691;28;20471;-46
2022/07/27 11:40:43;;;;;;;0.90;0.70;;;24.60;47.10;;;;;;4969336;28;20545;-47
2022/07/27 11:43:36;;;;;;;0.80;0.70;;;24.60;46.70;;;;;;4965441;28;20472;-46
2022/07/27 11:46:13;;;;;;;1.17;0.63;;;24.60;47.20;;;;;;4970876;28;20865;-47
2022/07/27 11:48:56;;;;;;;0.70;0.60;;;24.60;47.00;;;;;;4971291;28;20473;-47
2022/07/27 11:51:46;;;;;;;1.13;0.60;;;24.60;47.00;;;;;;4971255;28;20446;-46
2022/07/27 11:54:20;;;;;;;1.57;0.70;;;24.60;47.20;;;;;;4970401;28;20597;-47
2022/07/27 11:56:50;;;;;;;0.60;0.60;;;24.60;46.60;;;;;;4972922;28;20461;-47
2022/07/27 11:59:20;;;;;;;1.07;0.70;;;24.60;47.00;;;;;;4957126;28;21044;-47
2022/07/27 12:01:51;;;;;;;1.00;0.70;;;24.60;47.00;;;;;;4980480;28;20440;-47
2022/07/27 12:04:26;;;;;;;1.07;0.63;;;24.60;47.20;;;;;;4965015;28;20478;-46
2022/07/27 12:06:58;;;;;;;1.07;0.70;;;24.60;47.40;;;;;;4970126;28;20492;-46
2022/07/27 12:09:29;;;;;;;0.60;0.60;;;24.60;47.20;;;;;;4972427;28;20561;-46
2022/07/27 12:12:11;;;;;;;1.07;0.60;;;24.60;47.50;;;;;;4972586;28;20431;-47
2022/07/27 12:14:41;;;;;;;0.73;0.70;;;24.60;47.20;;;;;;4963810;28;20981;-47
2022/07/27 12:17:21;;;;;;;2.20;0.97;;;24.60;47.30;;;;;;4970407;28;20465;-46
2022/07/27 12:19:58;;;;;;;2.53;0.93;;;24.60;46.40;;;;;;4985064;28;20545;-46
2022/07/27 12:22:32;;;;;;;2.40;0.93;;;24.60;46.50;;;;;;4971355;28;20449;-47
2022/07/27 12:25:08;;;;;;;1.40;0.80;;;24.60;47.10;;;;;;4977672;28;20454;-47
2022/07/27 12:27:55;;;;;;;0.80;0.70;;;24.60;46.70;;;;;;4968768;28;20533;-47
2022/07/27 12:30:30;;;;;;;0.97;0.60;;;24.60;47.00;;;;;;4965161;28;20835;-47
2022/07/27 12:32:59;;;;;;;3.43;0.90;;;24.60;47.00;;;;;;4976233;28;20465;-47
2022/07/27 12:35:29;;;;;;;0.83;0.60;;;24.60;47.20;;;;;;4965281;28;20543;-47
2022/07/27 12:38:06;;;;;;;1.07;0.63;;;24.60;47.00;;;;;;4969299;28;20485;-47
2022/07/27 12:40:44;;;;;;;0.90;0.50;;;24.60;47.00;;;;;;4971538;28;20443;-47
2022/07/27 12:43:16;;;;;;;0.80;0.50;;;24.60;47.10;;;;;;4965642;28;20470;-46
2022/07/27 12:45:44;;;;;;;0.97;0.67;;;24.60;45.20;;;;;;4968627;28;21000;-47
2022/07/27 12:48:15;;;;;;;0.60;0.60;;;24.60;45.90;;;;;;4971492;28;20471;-47
2022/07/27 12:50:45;;;;;;;0.90;0.53;;;24.60;46.40;;;;;;4974380;28;20494;-48
2022/07/27 12:53:16;;;;;;;0.90;0.50;;;24.60;45.70;;;;;;4969957;28;20471;-48
2022/07/27 12:55:47;;;;;;;2.20;0.70;;;24.60;45.90;;;;;;4963016;28;20699;-46
2022/07/27 12:58:15;;;;;;;1.17;0.73;;;24.60;46.20;;;;;;4970728;28;20858;-47
2022/07/27 13:00:46;;;;;;;0.87;0.63;;;24.60;46.00;;;;;;4971147;28;20525;-47
2022/07/27 13:03:15;;;;;;;0.80;0.70;;;24.60;46.30;;;;;;4964580;28;20493;-47
2022/07/27 13:05:43;;;;;;;1.13;0.50;;;24.70;46.90;;;;;;4960171;28;20530;-47
2022/07/27 13:08:12;;;;;;;0.70;0.70;;;24.60;46.70;;;;;;4984891;28;20488;-47
2022/07/27 13:10:50;;;;;;;0.70;0.50;;;24.70;46.20;;;;;;4967700;28;20826;-47
2022/07/27 13:13:23;;;;;;;1.00;0.60;;;24.70;46.80;;;;;;4971031;28;20490;-47